Time;durP1;ratioP1;P1;durP2;ratioP2;P2;SDS_P1;SDS_P2;PMS_P1;PMS_P2;Temp;Humidity;BMP_temperature;BMP_pressure;BME280_temperature;BME280_humidity;BME280_pressure;Samples;Min_cycle;Max_cycle;Signal;HPM_P1;HPM_P2
2021/09/28 00:00:29;;;;;;;4.93;2.97;;;13.30;99.90;;;;;;5044901;28;20418;-75
2021/09/28 00:02:55;;;;;;;8.00;4.07;;;13.30;99.90;;;;;;5040204;28;20481;-74
2021/09/28 00:05:21;;;;;;;8.60;4.10;;;13.30;99.90;;;;;;5045503;28;20203;-74
2021/09/28 00:07:47;;;;;;;7.37;4.07;;;13.30;99.90;;;;;;5045994;28;20173;-75
2021/09/28 00:10:12;;;;;;;11.83;4.47;;;13.20;99.90;;;;;;5043423;28;20425;-75
2021/09/28 00:12:38;;;;;;;6.77;3.50;;;13.30;99.90;;;;;;5040037;28;20260;-75
2021/09/28 00:15:06;;;;;;;13.30;4.23;;;13.20;99.90;;;;;;5044642;28;20230;-75
2021/09/28 00:17:32;;;;;;;10.07;4.17;;;13.20;99.90;;;;;;5044320;28;20784;-75
2021/09/28 00:19:57;;;;;;;11.50;4.03;;;13.20;99.90;;;;;;5041647;28;20498;-75
2021/09/28 00:22:23;;;;;;;10.77;4.90;;;13.10;99.90;;;;;;5043955;28;20216;-75
2021/09/28 00:24:48;;;;;;;9.73;4.30;;;13.10;99.90;;;;;;5040201;28;20546;-74
2021/09/28 00:27:14;;;;;;;8.73;4.00;;;13.10;99.90;;;;;;5038538;28;20177;-74
2021/09/28 00:29:40;;;;;;;8.40;3.27;;;13.10;99.90;;;;;;5042786;28;20673;-75
2021/09/28 00:32:06;;;;;;;10.63;4.13;;;13.00;99.90;;;;;;5035892;28;20280;-75
2021/09/28 00:34:33;;;;;;;10.67;4.20;;;13.00;99.90;;;;;;5036654;28;20184;-75
2021/09/28 00:36:58;;;;;;;13.10;5.53;;;13.00;99.90;;;;;;5038810;28;20467;-75
2021/09/28 00:39:24;;;;;;;10.13;4.20;;;13.00;99.90;;;;;;5045707;28;20430;-75
2021/09/28 00:41:49;;;;;;;14.33;4.70;;;12.90;99.90;;;;;;5045503;28;20191;-74
2021/09/28 00:44:15;;;;;;;10.87;4.37;;;12.90;99.90;;;;;;5043103;28;20279;-74
2021/09/28 00:46:41;;;;;;;9.07;4.63;;;12.90;99.90;;;;;;5038760;28;20172;-75
2021/09/28 00:49:06;;;;;;;8.80;4.57;;;12.90;99.90;;;;;;5039911;28;20517;-75
2021/09/28 00:51:32;;;;;;;8.30;4.07;;;12.90;99.90;;;;;;5043304;28;20188;-74
2021/09/28 00:53:58;;;;;;;5.93;3.73;;;12.90;99.90;;;;;;5036687;28;20176;-74
2021/09/28 00:56:24;;;;;;;9.43;3.93;;;12.80;99.90;;;;;;5035915;28;20230;-75
2021/09/28 00:58:50;;;;;;;9.77;3.73;;;12.80;99.90;;;;;;5037224;28;20423;-75
2021/09/28 01:01:17;;;;;;;9.77;4.00;;;12.80;99.90;;;;;;5048224;28;20594;-75
2021/09/28 01:03:43;;;;;;;8.07;3.67;;;12.80;99.90;;;;;;5040661;28;20418;-75
2021/09/28 01:06:08;;;;;;;13.27;4.80;;;12.70;99.90;;;;;;5044515;28;20424;-75
2021/09/28 01:08:34;;;;;;;6.60;3.83;;;12.70;99.90;;;;;;5034288;28;20788;-75
2021/09/28 01:11:02;;;;;;;8.73;3.60;;;12.70;99.90;;;;;;5035254;28;20530;-74
2021/09/28 01:13:28;;;;;;;10.77;4.10;;;12.70;99.90;;;;;;5034922;28;20192;-74
2021/09/28 01:18:39;;;;;;;8.10;4.23;;;12.70;99.90;;;;;;5071329;27;20512;-74
2021/09/28 01:21:08;;;;;;;8.50;4.67;;;12.60;99.90;;;;;;5068247;28;20432;-75
2021/09/28 01:23:34;;;;;;;8.53;4.00;;;12.60;99.90;;;;;;5070749;28;20917;-75
2021/09/28 01:25:59;;;;;;;7.77;4.07;;;12.60;99.90;;;;;;5069802;28;20401;-75
2021/09/28 01:28:25;;;;;;;12.90;5.17;;;12.50;99.90;;;;;;5069424;28;20602;-75
2021/09/28 01:30:50;;;;;;;7.90;4.03;;;12.60;99.90;;;;;;5065937;28;20225;-74
2021/09/28 01:33:16;;;;;;;8.27;3.73;;;12.50;99.90;;;;;;5069368;28;20304;-74
2021/09/28 01:35:43;;;;;;;8.87;4.90;;;12.50;99.90;;;;;;5070030;28;20175;-74
2021/09/28 01:38:09;;;;;;;8.20;4.90;;;12.50;99.90;;;;;;5068990;28;20450;-74
2021/09/28 01:40:34;;;;;;;14.67;5.73;;;12.50;99.90;;;;;;5069884;28;20410;-74
2021/09/28 01:43:09;;;;;;;7.57;4.50;;;12.50;99.90;;;;;;5069491;28;20450;-74
2021/09/28 01:45:35;;;;;;;12.40;4.63;;;12.50;99.90;;;;;;5063230;28;20179;-74
2021/09/28 01:48:00;;;;;;;6.30;4.40;;;12.50;99.90;;;;;;5070796;28;20873;-74
2021/09/28 01:50:26;;;;;;;7.27;5.17;;;12.40;99.90;;;;;;5070863;28;20903;-74
2021/09/28 01:52:52;;;;;;;11.40;4.47;;;12.40;99.90;;;;;;5069081;28;20195;-75
2021/09/28 01:55:17;;;;;;;11.13;5.10;;;12.40;99.90;;;;;;5067746;28;20701;-74
2021/09/28 01:57:43;;;;;;;6.90;4.57;;;12.40;99.90;;;;;;5069069;28;20195;-75
2021/09/28 02:00:09;;;;;;;7.10;3.90;;;12.40;99.90;;;;;;5069633;28;20187;-75
2021/09/28 02:02:34;;;;;;;14.73;4.60;;;12.40;99.90;;;;;;5066560;28;20601;-75
2021/09/28 02:05:00;;;;;;;11.70;4.23;;;12.40;99.90;;;;;;5068847;28;20504;-75
2021/09/28 02:07:25;;;;;;;13.00;3.70;;;12.30;99.90;;;;;;5068611;28;20195;-74
2021/09/28 02:09:51;;;;;;;9.50;4.40;;;12.30;99.90;;;;;;5069007;28;20224;-75
2021/09/28 02:12:16;;;;;;;13.97;6.80;;;12.40;99.90;;;;;;5068333;28;20171;-75
2021/09/28 02:14:42;;;;;;;10.33;5.80;;;12.40;99.90;;;;;;5068593;28;20179;-74
2021/09/28 02:17:07;;;;;;;16.30;7.57;;;12.40;99.90;;;;;;5068260;28;20204;-74
2021/09/28 02:19:33;;;;;;;10.43;5.03;;;12.30;99.90;;;;;;5068074;28;20221;-74
2021/09/28 02:21:59;;;;;;;18.53;7.60;;;12.40;99.90;;;;;;5067634;28;20197;-74
2021/09/28 02:24:24;;;;;;;13.87;6.10;;;12.40;99.90;;;;;;5068804;28;20260;-74
2021/09/28 02:26:50;;;;;;;13.57;6.90;;;12.40;99.90;;;;;;5068516;28;20195;-74
2021/09/28 02:29:16;;;;;;;15.90;5.83;;;12.40;99.90;;;;;;5052660;28;20179;-74
2021/09/28 02:31:41;;;;;;;12.10;5.33;;;12.40;99.90;;;;;;5054738;28;20182;-74
2021/09/28 02:34:09;;;;;;;12.30;4.93;;;12.40;99.90;;;;;;5055379;28;20645;-74
2021/09/28 02:36:35;;;;;;;10.73;4.60;;;12.40;99.90;;;;;;5054506;28;20188;-74
2021/09/28 02:39:01;;;;;;;6.87;3.63;;;12.40;99.90;;;;;;5048240;28;20418;-74
2021/09/28 02:41:26;;;;;;;7.20;4.33;;;12.40;99.90;;;;;;5054814;28;20184;-74
2021/09/28 02:43:52;;;;;;;9.63;4.37;;;12.40;99.90;;;;;;5055164;28;20183;-74
2021/09/28 02:46:17;;;;;;;12.83;3.57;;;12.40;99.90;;;;;;5054972;28;20195;-74
2021/09/28 02:48:43;;;;;;;9.07;4.63;;;12.50;99.90;;;;;;5056888;28;20199;-74
2021/09/28 02:51:08;;;;;;;11.30;5.03;;;12.50;99.90;;;;;;5054759;28;20262;-74
2021/09/28 02:53:34;;;;;;;9.80;3.60;;;12.50;99.90;;;;;;5054943;28;20176;-74
2021/09/28 02:56:00;;;;;;;6.23;3.40;;;12.50;99.90;;;;;;5053767;28;20191;-74
2021/09/28 02:58:25;;;;;;;21.10;4.60;;;12.50;99.90;;;;;;5054986;28;20704;-73
2021/09/28 03:00:51;;;;;;;7.37;3.90;;;12.50;99.90;;;;;;5055342;28;20180;-72
2021/09/28 03:03:17;;;;;;;8.93;3.87;;;12.50;99.90;;;;;;5054560;28;20270;-72
2021/09/28 03:05:42;;;;;;;9.23;4.17;;;12.40;99.90;;;;;;5054501;28;20182;-72
2021/09/28 03:08:08;;;;;;;11.33;4.20;;;12.50;99.90;;;;;;5054632;28;20243;-72
2021/09/28 03:10:35;;;;;;;8.10;4.50;;;12.50;99.90;;;;;;5054784;28;20183;-72
2021/09/28 03:13:00;;;;;;;11.00;4.00;;;12.40;99.90;;;;;;5054178;28;20237;-72
2021/09/28 03:15:26;;;;;;;10.47;4.27;;;12.40;99.90;;;;;;5054354;28;20423;-73
2021/09/28 03:17:51;;;;;;;7.47;3.83;;;12.40;99.90;;;;;;5054282;28;20212;-72
2021/09/28 03:20:17;;;;;;;8.40;4.53;;;12.50;99.90;;;;;;5054141;28;20179;-72
2021/09/28 03:22:42;;;;;;;6.57;4.10;;;12.40;99.90;;;;;;5054444;28;20199;-72
2021/09/28 03:25:08;;;;;;;9.30;4.80;;;12.40;99.90;;;;;;5054646;28;20180;-72
2021/09/28 03:27:34;;;;;;;13.33;5.50;;;12.40;99.90;;;;;;5053787;28;20176;-72
2021/09/28 03:30:00;;;;;;;8.53;4.77;;;12.30;99.90;;;;;;5047593;28;20425;-72
2021/09/28 03:32:25;;;;;;;10.20;5.30;;;12.40;99.90;;;;;;5053766;28;20572;-72
2021/09/28 03:34:51;;;;;;;8.47;4.03;;;12.30;99.90;;;;;;5054132;28;20568;-72
2021/09/28 03:37:16;;;;;;;10.50;4.73;;;12.40;99.90;;;;;;5053635;28;20738;-72
2021/09/28 03:39:42;;;;;;;12.70;6.10;;;12.30;99.90;;;;;;5053495;28;20184;-72
2021/09/28 03:42:07;;;;;;;10.93;6.13;;;12.30;99.90;;;;;;5053497;28;20175;-72
2021/09/28 03:44:33;;;;;;;9.20;5.30;;;12.30;99.90;;;;;;5054783;28;20668;-72
2021/09/28 03:46:58;;;;;;;12.00;5.53;;;12.30;99.90;;;;;;5053870;28;20184;-72
2021/09/28 03:49:24;;;;;;;11.63;6.10;;;12.20;99.90;;;;;;5053951;28;20183;-72
2021/09/28 03:51:49;;;;;;;10.33;5.00;;;12.20;99.90;;;;;;5051748;28;20553;-72
2021/09/28 03:54:15;;;;;;;11.23;5.93;;;12.20;99.90;;;;;;5052937;28;20206;-72
2021/09/28 03:56:40;;;;;;;10.47;5.20;;;12.20;99.90;;;;;;5053115;28;20599;-73
2021/09/28 03:59:06;;;;;;;12.77;5.67;;;12.20;99.90;;;;;;5051760;28;20173;-72
2021/09/28 04:01:31;;;;;;;8.90;5.67;;;12.20;99.90;;;;;;5056901;28;20578;-72
2021/09/28 04:03:57;;;;;;;10.53;6.40;;;12.20;99.90;;;;;;5051745;28;20226;-72
2021/09/28 04:06:22;;;;;;;9.03;5.13;;;12.20;99.90;;;;;;5052444;28;20641;-72
2021/09/28 04:08:48;;;;;;;10.00;5.40;;;12.10;99.90;;;;;;5052331;28;20176;-72
2021/09/28 04:11:15;;;;;;;16.17;6.60;;;12.10;99.90;;;;;;5054132;28;20213;-72
2021/09/28 04:13:42;;;;;;;12.80;6.17;;;12.10;99.90;;;;;;5054227;28;20660;-72
2021/09/28 04:16:08;;;;;;;10.07;6.30;;;12.10;99.90;;;;;;5053307;28;20411;-72
2021/09/28 04:18:34;;;;;;;11.43;5.53;;;12.10;99.90;;;;;;5052477;28;20943;-72
2021/09/28 04:21:01;;;;;;;12.40;6.07;;;12.10;99.90;;;;;;5054475;28;20426;-73
2021/09/28 04:23:26;;;;;;;10.83;5.07;;;12.10;99.90;;;;;;5052790;28;20575;-72
2021/09/28 04:25:52;;;;;;;10.03;5.50;;;12.10;99.90;;;;;;5051491;28;20434;-72
2021/09/28 04:28:17;;;;;;;10.80;5.20;;;12.10;99.90;;;;;;5054269;28;20180;-72
2021/09/28 04:30:43;;;;;;;10.63;3.83;;;12.00;99.90;;;;;;5052246;28;20194;-72
2021/09/28 04:33:09;;;;;;;8.50;4.83;;;12.00;99.90;;;;;;5051778;28;20267;-72
2021/09/28 04:35:34;;;;;;;8.63;4.27;;;12.00;99.90;;;;;;5052095;28;20184;-72
2021/09/28 04:38:00;;;;;;;6.87;4.57;;;12.00;99.90;;;;;;5052053;28;20207;-72
2021/09/28 04:40:26;;;;;;;12.90;5.87;;;12.00;99.90;;;;;;5054390;28;20426;-72
2021/09/28 04:42:52;;;;;;;10.43;4.27;;;12.00;99.90;;;;;;5054359;28;21022;-72
2021/09/28 04:45:17;;;;;;;8.60;4.17;;;11.90;99.90;;;;;;5051936;28;20540;-72
2021/09/28 04:47:43;;;;;;;15.10;5.00;;;11.90;99.90;;;;;;5053429;28;20578;-72
2021/09/28 04:50:09;;;;;;;11.73;4.50;;;11.90;99.90;;;;;;5053455;28;20203;-72
2021/09/28 04:52:36;;;;;;;9.07;4.87;;;11.90;99.90;;;;;;5051648;28;20180;-72
2021/09/28 04:55:03;;;;;;;12.90;4.23;;;11.90;99.90;;;;;;5051502;28;20458;-72
2021/09/28 04:57:28;;;;;;;10.13;5.60;;;11.90;99.90;;;;;;5051979;28;20967;-72
2021/09/28 04:59:54;;;;;;;6.93;4.33;;;11.90;99.90;;;;;;5051378;28;20441;-72
2021/09/28 05:02:20;;;;;;;6.60;4.60;;;11.90;99.90;;;;;;5051568;28;20221;-72
2021/09/28 05:04:45;;;;;;;10.73;5.10;;;11.90;99.90;;;;;;5051282;28;20176;-72
2021/09/28 05:07:11;;;;;;;7.03;4.57;;;11.80;99.90;;;;;;5051776;28;20258;-72
2021/09/28 05:09:37;;;;;;;9.07;4.40;;;11.80;99.90;;;;;;5052194;28;20179;-72
2021/09/28 05:12:04;;;;;;;10.17;4.33;;;11.80;99.90;;;;;;5050111;28;20183;-73
2021/09/28 05:14:30;;;;;;;9.93;4.37;;;11.80;99.90;;;;;;5050859;28;20873;-73
2021/09/28 05:16:55;;;;;;;7.20;4.73;;;11.80;99.90;;;;;;5050550;28;20549;-73
2021/09/28 05:19:21;;;;;;;6.60;4.60;;;11.80;99.90;;;;;;5050909;28;20183;-73
2021/09/28 05:21:46;;;;;;;11.33;5.27;;;11.80;99.90;;;;;;5052002;28;20653;-72
2021/09/28 05:24:12;;;;;;;8.13;4.73;;;11.80;99.90;;;;;;5050024;28;20676;-72
2021/09/28 05:26:38;;;;;;;5.23;4.20;;;11.80;99.90;;;;;;5051725;28;20730;-72
2021/09/28 05:29:03;;;;;;;8.80;4.67;;;11.80;99.90;;;;;;5049907;28;20180;-72
2021/09/28 05:31:29;;;;;;;13.70;4.57;;;11.80;99.90;;;;;;5051572;28;20726;-72
2021/09/28 05:33:55;;;;;;;12.20;4.23;;;11.80;99.90;;;;;;5049841;28;20198;-72
2021/09/28 05:36:21;;;;;;;9.87;4.77;;;11.80;99.90;;;;;;5052029;28;20557;-72
2021/09/28 05:38:46;;;;;;;8.33;3.63;;;11.80;99.90;;;;;;5050959;28;20172;-72
2021/09/28 05:41:12;;;;;;;8.33;4.37;;;11.80;99.90;;;;;;5050753;28;20529;-72
2021/09/28 05:43:39;;;;;;;7.70;4.50;;;11.80;99.90;;;;;;5051326;28;20180;-72
2021/09/28 05:46:05;;;;;;;12.43;4.43;;;11.80;99.90;;;;;;5047563;28;20585;-72
2021/09/28 05:48:30;;;;;;;10.57;4.57;;;11.80;99.90;;;;;;5052425;28;20465;-73
2021/09/28 05:50:56;;;;;;;9.23;4.70;;;11.80;99.90;;;;;;5050607;28;20465;-72
2021/09/28 05:53:22;;;;;;;8.03;4.27;;;11.80;99.90;;;;;;5050922;28;20176;-72
2021/09/28 05:55:48;;;;;;;8.43;4.27;;;11.80;99.90;;;;;;5049034;28;20209;-72
2021/09/28 05:58:13;;;;;;;7.97;4.77;;;11.80;99.90;;;;;;5049628;28;20489;-72
2021/09/28 06:00:39;;;;;;;10.20;4.80;;;11.80;99.90;;;;;;5051056;28;21153;-72
2021/09/28 06:03:05;;;;;;;11.10;4.07;;;11.80;99.90;;;;;;5049968;28;20680;-72
2021/09/28 06:05:31;;;;;;;12.53;4.03;;;11.80;99.90;;;;;;5052305;28;20438;-72
2021/09/28 06:07:57;;;;;;;8.27;5.30;;;11.80;99.90;;;;;;5054348;28;20643;-72
2021/09/28 06:10:22;;;;;;;10.57;3.90;;;11.90;99.90;;;;;;5054190;28;20234;-72
2021/09/28 06:12:48;;;;;;;8.50;3.80;;;11.90;99.90;;;;;;5050871;28;20267;-72
2021/09/28 06:15:14;;;;;;;7.10;3.90;;;11.90;99.90;;;;;;5051665;28;20192;-72
2021/09/28 06:17:39;;;;;;;11.60;4.30;;;11.90;99.90;;;;;;5051815;28;20207;-72
2021/09/28 06:20:06;;;;;;;9.57;4.20;;;12.00;99.90;;;;;;5053392;28;20259;-73
2021/09/28 06:22:31;;;;;;;7.07;4.27;;;12.00;99.90;;;;;;5053936;28;20195;-73
2021/09/28 06:24:57;;;;;;;10.13;3.60;;;12.00;99.90;;;;;;5052414;28;20795;-72
2021/09/28 06:27:24;;;;;;;10.70;3.90;;;12.00;99.90;;;;;;5053091;28;20521;-72
2021/09/28 06:29:50;;;;;;;5.80;3.67;;;12.10;99.90;;;;;;5051935;28;20180;-72
2021/09/28 06:32:18;;;;;;;7.23;3.73;;;12.10;99.90;;;;;;5053435;28;20508;-73
2021/09/28 06:34:44;;;;;;;8.30;4.83;;;12.20;99.90;;;;;;5050575;28;20460;-73
2021/09/28 06:37:10;;;;;;;10.77;3.97;;;12.20;99.90;;;;;;5051132;28;20462;-73
2021/09/28 06:39:36;;;;;;;9.53;4.00;;;12.30;99.90;;;;;;5054290;28;20943;-73
2021/09/28 06:42:01;;;;;;;10.30;3.73;;;12.30;99.90;;;;;;5052728;28;20188;-73
2021/09/28 06:44:28;;;;;;;6.90;3.40;;;12.40;99.90;;;;;;5051550;28;20274;-73
2021/09/28 06:46:54;;;;;;;9.13;3.17;;;12.40;99.90;;;;;;5052654;28;20191;-72
2021/09/28 06:49:20;;;;;;;9.87;2.97;;;12.50;99.90;;;;;;5054884;28;20525;-72
2021/09/28 06:51:45;;;;;;;8.83;3.80;;;12.50;99.90;;;;;;5047478;28;20506;-72
2021/09/28 06:54:11;;;;;;;5.97;2.53;;;12.60;99.90;;;;;;5053090;28;20217;-72
2021/09/28 06:56:37;;;;;;;6.50;2.60;;;12.60;99.90;;;;;;5054395;28;20176;-72
2021/09/28 06:59:08;;;;;;;5.70;3.00;;;12.70;99.90;;;;;;5052692;28;20694;-72
2021/09/28 07:01:34;;;;;;;7.23;2.37;;;12.70;99.90;;;;;;5051792;28;20438;-72
2021/09/28 07:04:00;;;;;;;8.37;2.60;;;12.80;99.90;;;;;;5052463;28;20434;-72
2021/09/28 07:06:27;;;;;;;4.70;2.63;;;12.80;99.90;;;;;;5053171;28;20944;-72
2021/09/28 07:08:53;;;;;;;4.27;2.13;;;12.80;99.90;;;;;;5050633;28;20183;-73
2021/09/28 07:11:19;;;;;;;5.20;2.23;;;12.90;99.90;;;;;;5053862;28;20398;-72
2021/09/28 07:13:46;;;;;;;8.27;2.67;;;12.90;99.90;;;;;;5051253;28;20199;-72
2021/09/28 07:16:11;;;;;;;7.00;2.60;;;13.00;99.90;;;;;;5054189;28;20762;-72
2021/09/28 07:18:37;;;;;;;7.90;2.30;;;13.00;99.90;;;;;;5052544;28;20450;-72
2021/09/28 07:21:02;;;;;;;7.03;3.23;;;13.10;99.90;;;;;;5050790;28;20180;-72
2021/09/28 07:23:28;;;;;;;8.10;2.50;;;13.10;99.90;;;;;;5053094;28;20241;-72
2021/09/28 07:25:54;;;;;;;5.70;2.30;;;13.20;99.90;;;;;;5051762;28;20608;-72
2021/09/28 07:28:19;;;;;;;5.43;1.93;;;13.20;99.90;;;;;;5050987;28;20188;-72
2021/09/28 07:30:45;;;;;;;7.67;2.67;;;13.30;99.90;;;;;;5050823;28;20188;-72
2021/09/28 07:33:11;;;;;;;5.47;2.47;;;13.30;99.90;;;;;;5050382;28;20612;-73
2021/09/28 07:35:36;;;;;;;6.83;2.70;;;13.40;99.90;;;;;;5051968;28;20729;-73
2021/09/28 07:38:02;;;;;;;7.60;2.80;;;13.40;99.90;;;;;;5050955;28;20554;-72
2021/09/28 07:40:28;;;;;;;2.97;1.67;;;13.50;99.90;;;;;;5051905;28;20187;-72
2021/09/28 07:42:53;;;;;;;5.73;2.00;;;13.50;99.90;;;;;;5051043;28;20184;-72
2021/09/28 07:45:19;;;;;;;4.90;2.40;;;13.60;99.90;;;;;;5052381;28;20176;-72
2021/09/28 07:47:45;;;;;;;5.70;2.30;;;13.60;99.90;;;;;;5051266;28;20650;-72
2021/09/28 07:50:12;;;;;;;5.23;2.80;;;13.70;99.90;;;;;;5052824;28;20496;-72
2021/09/28 07:52:37;;;;;;;5.03;2.20;;;13.70;99.90;;;;;;5051017;28;20181;-72
2021/09/28 07:55:03;;;;;;;8.50;2.07;;;13.80;99.90;;;;;;5048547;28;20951;-72
2021/09/28 07:57:29;;;;;;;5.50;2.47;;;13.80;99.90;;;;;;5051962;28;20200;-72
2021/09/28 07:59:54;;;;;;;4.00;1.93;;;13.80;99.90;;;;;;5051742;28;20218;-72
2021/09/28 08:02:20;;;;;;;5.97;1.87;;;13.90;99.90;;;;;;5052175;28;20223;-73
2021/09/28 08:04:46;;;;;;;5.63;2.63;;;14.00;99.90;;;;;;5048474;28;20205;-73
2021/09/28 08:07:13;;;;;;;17.03;3.23;;;14.00;99.90;;;;;;5050129;28;20248;-73
2021/09/28 08:09:39;;;;;;;9.30;2.43;;;14.10;99.90;;;;;;5052365;28;20579;-73
2021/09/28 08:12:07;;;;;;;5.10;3.17;;;14.20;99.90;;;;;;5050320;28;20455;-73
2021/09/28 08:14:33;;;;;;;5.40;2.80;;;14.20;99.90;;;;;;5051233;28;20441;-73
2021/09/28 08:16:58;;;;;;;7.10;3.30;;;14.30;99.90;;;;;;5049289;28;20455;-73
2021/09/28 08:19:24;;;;;;;7.87;4.53;;;14.40;99.90;;;;;;5050919;28;20268;-73
2021/09/28 08:21:51;;;;;;;7.10;2.60;;;14.40;99.90;;;;;;5048586;28;20179;-73
2021/09/28 08:24:17;;;;;;;5.90;3.63;;;14.50;99.90;;;;;;5050768;28;20181;-73
2021/09/28 08:29:29;;;;;;;7.77;2.87;;;14.60;99.90;;;;;;5049305;28;20799;-74
2021/09/28 08:31:55;;;;;;;8.10;2.97;;;14.70;99.90;;;;;;5051025;28;20527;-73
2021/09/28 08:34:21;;;;;;;8.70;2.80;;;14.80;99.90;;;;;;5045916;28;20409;-73
2021/09/28 08:36:47;;;;;;;9.30;3.27;;;14.80;99.90;;;;;;5051766;28;20195;-73
2021/09/28 08:39:15;;;;;;;10.47;2.80;;;14.90;99.90;;;;;;5050804;28;20885;-73
2021/09/28 08:41:43;;;;;;;5.87;1.47;;;15.00;99.90;;;;;;5049300;28;20426;-74
2021/09/28 08:44:09;;;;;;;4.63;2.60;;;15.00;99.90;;;;;;5051616;28;20859;-73
2021/09/28 08:46:35;;;;;;;3.43;2.20;;;15.00;99.90;;;;;;5049355;28;20450;-73
2021/09/28 08:49:00;;;;;;;5.50;1.70;;;15.10;99.90;;;;;;5049187;28;20187;-73
2021/09/28 08:51:27;;;;;;;7.00;2.37;;;15.10;99.90;;;;;;5049347;28;20445;-73
2021/09/28 08:53:52;;;;;;;4.87;2.23;;;15.20;99.90;;;;;;5045711;28;20575;-73
2021/09/28 08:56:18;;;;;;;7.77;2.43;;;15.30;99.90;;;;;;5047113;28;20434;-73
2021/09/28 09:01:37;;;;;;;10.03;2.50;;;15.40;99.90;;;;;;5060924;28;20578;-70
2021/09/28 09:04:20;;;;;;;12.80;2.70;;;15.50;99.90;;;;;;5058338;28;20503;-70
2021/09/28 09:06:47;;;;;;;7.20;3.20;;;15.50;99.90;;;;;;5065281;28;20784;-70
2021/09/28 09:09:13;;;;;;;4.87;2.63;;;15.50;99.90;;;;;;5057551;28;20425;-70
2021/09/28 09:11:41;;;;;;;6.70;2.50;;;15.60;99.90;;;;;;5062491;28;20449;-70
2021/09/28 09:16:53;;;;;;;8.77;3.10;;;15.70;99.90;;;;;;5087762;28;20580;-70
2021/09/28 09:19:26;;;;;;;6.73;2.63;;;15.90;99.90;;;;;;5089165;28;20432;-70
2021/09/28 09:21:54;;;;;;;8.93;2.50;;;16.00;99.90;;;;;;5089784;28;20730;-70
2021/09/28 09:27:32;;;;;;;5.90;2.47;;;16.20;99.90;;;;;;5070245;27;20513;-69
2021/09/28 09:30:10;;;;;;;6.97;2.90;;;16.30;99.90;;;;;;5064984;28;20824;-69
2021/09/28 09:35:27;;;;;;;3.33;2.23;;;16.50;99.90;;;;;;5079102;27;20522;-70
2021/09/28 09:40:45;;;;;;;8.07;3.17;;;16.80;99.90;;;;;;5053920;28;20570;-70
2021/09/28 09:43:12;;;;;;;6.17;2.40;;;16.90;99.90;;;;;;5030073;28;20428;-69
2021/09/28 09:45:38;;;;;;;5.53;3.20;;;17.00;99.90;;;;;;5033456;28;20434;-70
2021/09/28 09:48:25;;;;;;;8.33;2.90;;;17.00;99.90;;;;;;5030354;28;20445;-70
2021/09/28 09:53:58;;;;;;;7.10;2.27;;;17.10;99.90;;;;;;5102876;27;20523;-70
2021/09/28 09:59:19;;;;;;;9.80;4.00;;;17.20;99.90;;;;;;5041426;28;21157;-69
2021/09/28 10:01:45;;;;;;;4.77;4.07;;;17.30;99.90;;;;;;5036024;28;20413;-69
2021/09/28 10:04:13;;;;;;;6.57;2.53;;;17.30;99.90;;;;;;5035854;28;20474;-69
2021/09/28 10:06:39;;;;;;;6.20;2.60;;;17.30;99.90;;;;;;5039172;28;20854;-71
2021/09/28 10:09:11;;;;;;;6.20;2.50;;;17.30;99.90;;;;;;5037538;28;20422;-70
2021/09/28 10:11:39;;;;;;;6.70;2.30;;;17.20;99.90;;;;;;5035741;28;20544;-69
2021/09/28 10:14:05;;;;;;;4.60;2.43;;;17.20;99.90;;;;;;5039967;28;20423;-69
2021/09/28 10:16:34;;;;;;;5.67;2.60;;;17.20;99.90;;;;;;5038231;28;20442;-70
2021/09/28 10:19:01;;;;;;;4.43;2.43;;;17.30;99.90;;;;;;5032937;28;20456;-70
2021/09/28 10:21:43;;;;;;;6.40;4.73;;;17.30;99.90;;;;;;5037035;28;20434;-70
2021/09/28 10:24:26;;;;;;;6.47;3.33;;;17.20;99.90;;;;;;5032846;28;20417;-70
2021/09/28 10:51:20;;;;;;;5.30;2.30;;;17.60;99.90;;;;;;5038204;28;20610;-70
2021/09/28 10:53:50;;;;;;;5.27;2.40;;;17.60;99.90;;;;;;5027574;28;20429;-70
2021/09/28 10:56:18;;;;;;;6.50;2.17;;;17.60;99.90;;;;;;5015933;28;20522;-70
2021/09/28 10:59:02;;;;;;;5.80;2.20;;;17.60;99.90;;;;;;5015444;28;20434;-70
2021/09/28 11:01:29;;;;;;;7.70;2.53;;;17.50;99.90;;;;;;5002303;28;20920;-70
2021/09/28 11:03:59;;;;;;;4.43;1.77;;;17.50;99.90;;;;;;5004378;28;20426;-70
2021/09/28 11:06:46;;;;;;;7.90;2.13;;;17.60;99.90;;;;;;5006284;28;20947;-70
2021/09/28 11:09:13;;;;;;;6.03;2.90;;;17.60;99.90;;;;;;4998291;28;20817;-70
2021/09/28 11:11:39;;;;;;;5.63;2.20;;;17.60;99.90;;;;;;5003750;28;20417;-70
2021/09/28 11:14:06;;;;;;;3.17;2.00;;;17.70;99.90;;;;;;5002522;28;20424;-70
2021/09/28 11:16:40;;;;;;;3.70;2.20;;;17.80;99.90;;;;;;5002292;28;20855;-70
2021/09/28 11:19:06;;;;;;;5.30;3.67;;;17.80;99.90;;;;;;4999094;28;20427;-70
2021/09/28 11:21:36;;;;;;;6.50;3.83;;;17.80;99.90;;;;;;5004212;28;20540;-70
2021/09/28 11:24:02;;;;;;;4.80;1.70;;;17.90;99.90;;;;;;5003128;28;20183;-70
2021/09/28 11:26:38;;;;;;;4.57;2.60;;;17.90;99.90;;;;;;5003367;28;20445;-70
2021/09/28 11:29:05;;;;;;;7.50;2.30;;;17.90;99.90;;;;;;5001936;28;20632;-70
2021/09/28 11:31:37;;;;;;;11.77;2.07;;;17.80;99.90;;;;;;5000808;28;20433;-70
2021/09/28 11:34:02;;;;;;;6.57;2.10;;;17.80;99.90;;;;;;5005378;28;20425;-70
2021/09/28 11:36:34;;;;;;;4.53;2.57;;;17.80;99.90;;;;;;5007873;28;20433;-70
2021/09/28 11:39:00;;;;;;;4.17;1.77;;;17.80;99.90;;;;;;5004223;28;20185;-70
2021/09/28 11:41:26;;;;;;;6.30;1.80;;;17.80;99.90;;;;;;5003598;28;20538;-70
2021/09/28 11:43:57;;;;;;;8.07;2.03;;;17.90;99.90;;;;;;5003179;28;20433;-70
2021/09/28 11:46:25;;;;;;;5.93;1.40;;;18.00;99.90;;;;;;5001191;28;20956;-70
2021/09/28 11:48:57;;;;;;;4.03;1.50;;;18.00;99.90;;;;;;5005170;28;20438;-70
2021/09/28 11:51:25;;;;;;;6.90;3.30;;;18.10;99.90;;;;;;5006917;28;20516;-70
2021/09/28 11:56:32;;;;;;;5.80;1.77;;;18.10;99.90;;;;;;5058534;28;20538;-70
2021/09/28 11:58:58;;;;;;;4.50;2.10;;;18.20;99.90;;;;;;5044387;28;20554;-70
2021/09/28 12:01:25;;;;;;;6.03;2.40;;;18.20;99.90;;;;;;5042144;28;20456;-70
2021/09/28 12:09:57;;;;;;;4.07;2.00;;;18.10;99.90;;;;;;5075904;28;20553;-70
2021/09/28 12:12:26;;;;;;;5.83;1.87;;;18.10;99.90;;;;;;5066851;28;20413;-71
2021/09/28 12:14:54;;;;;;;5.97;1.83;;;18.10;99.90;;;;;;5066460;28;20426;-70
2021/09/28 12:20:06;;;;;;;4.93;2.23;;;18.00;99.90;;;;;;5114474;27;20533;-70
2021/09/28 12:25:20;;;;;;;8.90;2.80;;;18.10;99.90;;;;;;5050299;28;20563;-69
2021/09/28 12:30:32;;;;;;;6.70;1.63;;;18.20;99.90;;;;;;5083693;27;20535;-70
2021/09/28 12:32:58;;;;;;;7.40;1.80;;;18.30;99.90;;;;;;5077130;28;20507;-70
2021/09/28 12:35:27;;;;;;;5.43;2.30;;;18.40;99.90;;;;;;5076975;28;20551;-70
2021/09/28 12:37:56;;;;;;;6.10;2.37;;;18.40;99.90;;;;;;5081471;28;20175;-70
2021/09/28 12:40:25;;;;;;;4.17;1.40;;;18.50;99.90;;;;;;5079397;28;20808;-70
2021/09/28 12:43:10;;;;;;;8.70;5.47;;;18.50;99.90;;;;;;5080379;28;20436;-70
2021/09/28 12:48:38;;;;;;;8.00;4.97;;;18.50;99.90;;;;;;5069863;28;21056;-72
2021/09/28 12:51:06;;;;;;;5.30;2.83;;;18.30;99.90;;;;;;5055423;28;20517;-72
2021/09/28 12:53:32;;;;;;;5.27;2.00;;;18.40;99.90;;;;;;5065557;28;20848;-72
2021/09/28 12:55:58;;;;;;;5.80;1.63;;;18.30;99.90;;;;;;5064478;28;20757;-72
2021/09/28 12:58:24;;;;;;;5.87;1.40;;;18.30;99.90;;;;;;5067159;28;20429;-72
2021/09/28 13:00:51;;;;;;;7.40;4.27;;;18.40;99.90;;;;;;5063243;28;20274;-72
2021/09/28 13:03:20;;;;;;;6.03;4.10;;;18.50;99.90;;;;;;5063656;28;20897;-72
2021/09/28 13:05:52;;;;;;;9.23;2.40;;;18.50;99.90;;;;;;5061871;28;20434;-72
2021/09/28 13:08:21;;;;;;;4.83;2.33;;;18.60;99.90;;;;;;5057399;28;20457;-72
2021/09/28 13:10:47;;;;;;;4.40;1.70;;;18.60;99.90;;;;;;5059316;28;20414;-73
2021/09/28 13:13:13;;;;;;;2.70;1.90;;;18.70;99.90;;;;;;5061927;28;20429;-73
2021/09/28 13:15:38;;;;;;;4.10;1.43;;;18.80;99.90;;;;;;5058012;28;20472;-73
2021/09/28 13:18:04;;;;;;;8.77;4.80;;;18.80;99.90;;;;;;5064237;28;20179;-72
2021/09/28 13:20:29;;;;;;;7.40;3.70;;;18.80;99.90;;;;;;5059001;28;20233;-73
2021/09/28 13:22:56;;;;;;;6.07;3.53;;;18.80;99.90;;;;;;5062239;28;20187;-74
2021/09/28 13:25:22;;;;;;;4.97;1.80;;;18.80;99.90;;;;;;5062313;28;20180;-73
2021/09/28 13:27:47;;;;;;;6.20;1.87;;;18.80;99.90;;;;;;5057612;28;20461;-72
2021/09/28 13:30:14;;;;;;;2.70;1.00;;;18.80;99.90;;;;;;5058035;28;20191;-73
2021/09/28 13:32:40;;;;;;;3.60;1.27;;;18.80;99.90;;;;;;5054335;28;20687;-74
2021/09/28 13:35:06;;;;;;;3.00;1.30;;;18.80;99.90;;;;;;5043347;28;20427;-74
2021/09/28 13:37:33;;;;;;;4.27;1.77;;;18.80;99.90;;;;;;5048164;28;20791;-74
2021/09/28 13:39:59;;;;;;;6.87;3.40;;;18.70;99.90;;;;;;5044437;28;20465;-75
2021/09/28 13:42:24;;;;;;;6.90;2.23;;;18.80;99.90;;;;;;5042063;28;20474;-75
2021/09/28 13:44:50;;;;;;;3.37;1.80;;;18.80;99.90;;;;;;5044702;28;20200;-75
2021/09/28 13:47:16;;;;;;;3.77;2.10;;;18.80;99.90;;;;;;5044082;28;20200;-75
2021/09/28 13:49:42;;;;;;;7.60;1.97;;;18.70;99.90;;;;;;5047819;28;20503;-75